Aérodrome :
LOGIN :

S'inscrire | Disclaimer

   EN    FR    IT 

 










Légende :    VFR   VFR Marginal   IFR   IFR Intensif   IFR Très Intensif
Visi : 
Plafond : 
>= 8 km
>= 3000ft
5 à 8 km
1000 à 3000 ft
1500m à 5 km
500 à 1000 ft
800 à 1500m
200 à 500 ft
< 800m
< 200 ft
Symboles :   Orages  Brouillard  Fortes neiges  Fortes précipitations  Vent > 20 kt
SIGMETs :   Divers  Orages  Givrage  Turbulence  Onde Orograph.  Cendres Volcan.







- Altitude de l'aérodrome : 1276 ft
- Code IATA : STR


EDDS - Stuttgart

DERNIER METAR :
  • 222350Z 25018G29KT 220V280 9999 BKN021 BKN120 08/04 Q1012

METARs EXPIRÉS :
  • 222320Z 25017G27KT 9999 BKN024 BKN120 08/04 Q1012
  • 222250Z 25016G29KT 210V270 9999 SCT022 BKN120 08/05 Q1012
  • 222220Z 25015G25KT 9999 BKN022 BKN060 08/05 Q1012
  • 222150Z 24017KT 9999 BKN022 BKN120 08/05 Q1012
  • 222120Z 24016G28KT 200V260 9999 BKN022 BKN120 08/05 Q1012

TAF TAF EDDS
Valide du 23 à 00h jusqu'au 24 à 00h UTC


222300Z 2300/2324 23015G25KT 9999 BKN020
BECMG 2300/2303 23010KT
BECMG 2310/2312 23015G30KT
PROB40
TEMPO 2318/2322 25020G40KT SHRA BKN020TCU
Pas de NOTAMs connus pour ce terrain.



MET'MAP, la Météo Aéronautique d'un coup d'oeil ! - Copyright ORBIFLY Décembre 2007 - Disclaimer

ORBIFLY MET'MAP TEAM :

Programmation & Développement : Alexandra Zaïnal
Conception & Développement : Baudouin d'Aumeries
Co-Programmation & Développement : Marc-Olivier Méhu
Soutien technique & logistique : Manuel Goepfert

Contact : metmap@orbifly.com




SOURCES & CREDITS :

   NOAA